sensor_id;sensor_type;location;lat;lon;timestamp;pressure;altitude;pressure_sealevel;temperature;humidity
80798;BME280;70202;52.238;10.680;2023-08-08T00:00:59;99802.47;;;13.08;73.48
80798;BME280;70202;52.238;10.680;2023-08-08T00:02:00;99834.50;;;13.22;73.51
80798;BME280;70202;52.238;10.680;2023-08-08T00:03:00;99801.59;;;13.08;73.71
80798;BME280;70202;52.238;10.680;2023-08-08T00:04:00;99815.00;;;13.12;73.67
80798;BME280;70202;52.238;10.680;2023-08-08T00:05:01;99826.38;;;13.20;73.61
80798;BME280;70202;52.238;10.680;2023-08-08T00:06:01;99805.13;;;13.10;73.69
80798;BME280;70202;52.238;10.680;2023-08-08T00:07:02;99796.50;;;13.01;74.19
80798;BME280;70202;52.238;10.680;2023-08-08T00:08:02;99806.19;;;13.07;73.86
80798;BME280;70202;52.238;10.680;2023-08-08T00:09:03;99813.25;;;13.11;74.10
80798;BME280;70202;52.238;10.680;2023-08-08T00:10:04;99826.47;;;13.19;73.71
80798;BME280;70202;52.238;10.680;2023-08-08T00:11:05;99801.59;;;13.08;73.96
80798;BME280;70202;52.238;10.680;2023-08-08T00:12:05;99790.03;;;13.02;73.70
80798;BME280;70202;52.238;10.680;2023-08-08T00:13:06;99805.19;;;13.08;73.65
80798;BME280;70202;52.238;10.680;2023-08-08T00:14:06;99821.97;;;13.18;74.01
80798;BME280;70202;52.238;10.680;2023-08-08T00:15:07;99809.00;;;13.06;73.68
80798;BME280;70202;52.238;10.680;2023-08-08T00:16:07;99824.72;;;13.18;74.13
80798;BME280;70202;52.238;10.680;2023-08-08T00:17:08;99812.91;;;13.17;73.66
80798;BME280;70202;52.238;10.680;2023-08-08T00:18:08;99823.84;;;13.17;74.06
80798;BME280;70202;52.238;10.680;2023-08-08T00:19:08;99814.94;;;13.14;74.05
80798;BME280;70202;52.238;10.680;2023-08-08T00:20:09;99798.84;;;13.08;74.05
80798;BME280;70202;52.238;10.680;2023-08-08T00:21:10;99792.72;;;13.04;73.68
80798;BME280;70202;52.238;10.680;2023-08-08T00:22:11;99797.09;;;13.07;73.97
80798;BME280;70202;52.238;10.680;2023-08-08T00:23:11;99810.22;;;13.16;74.04
80798;BME280;70202;52.238;10.680;2023-08-08T00:24:12;99783.84;;;12.99;74.06
80798;BME280;70202;52.238;10.680;2023-08-08T00:25:12;99798.84;;;13.08;74.26
80798;BME280;70202;52.238;10.680;2023-08-08T00:26:13;99807.88;;;13.10;74.46
80798;BME280;70202;52.238;10.680;2023-08-08T00:27:13;99792.00;;;13.00;74.48
80798;BME280;70202;52.238;10.680;2023-08-08T00:28:13;99788.44;;;12.98;74.43
80798;BME280;70202;52.238;10.680;2023-08-08T00:29:14;99800.19;;;13.00;74.33
80798;BME280;70202;52.238;10.680;2023-08-08T00:30:14;99799.31;;;13.00;74.26
80798;BME280;70202;52.238;10.680;2023-08-08T00:31:14;99820.56;;;13.11;74.34
80798;BME280;70202;52.238;10.680;2023-08-08T00:32:17;99795.78;;;12.98;74.09
80798;BME280;70202;52.238;10.680;2023-08-08T00:33:18;99801.84;;;13.03;74.12
80798;BME280;70202;52.238;10.680;2023-08-08T00:34:18;99789.44;;;12.97;74.53
80798;BME280;70202;52.238;10.680;2023-08-08T00:35:18;99812.47;;;13.09;74.30
80798;BME280;70202;52.238;10.680;2023-08-08T00:36:19;99814.31;;;13.09;74.29
80798;BME280;70202;52.238;10.680;2023-08-08T00:37:19;99796.50;;;13.01;74.21
80798;BME280;70202;52.238;10.680;2023-08-08T00:38:19;99776.34;;;12.87;74.55
80798;BME280;70202;52.238;10.680;2023-08-08T00:39:20;99818.00;;;13.08;74.46
80798;BME280;70202;52.238;10.680;2023-08-08T00:40:20;99803.53;;;13.06;74.85
80798;BME280;70202;52.238;10.680;2023-08-08T00:41:21;99803.53;;;13.06;74.61
80798;BME280;70202;52.238;10.680;2023-08-08T00:42:22;99803.53;;;13.06;74.76
80798;BME280;70202;52.238;10.680;2023-08-08T00:43:22;99807.25;;;13.05;74.78
80798;BME280;70202;52.238;10.680;2023-08-08T00:44:23;99788.72;;;12.94;75.15
80798;BME280;70202;52.238;10.680;2023-08-08T00:45:23;99777.88;;;12.92;74.91
80798;BME280;70202;52.238;10.680;2023-08-08T00:46:24;99801.84;;;13.03;75.04
80798;BME280;70202;52.238;10.680;2023-08-08T00:47:25;99801.84;;;13.03;74.88
80798;BME280;70202;52.238;10.680;2023-08-08T00:48:25;99801.84;;;13.03;75.12
80798;BME280;70202;52.238;10.680;2023-08-08T00:49:26;99790.47;;;12.95;75.20
80798;BME280;70202;52.238;10.680;2023-08-08T00:50:26;99789.25;;;13.00;74.86
80798;BME280;70202;52.238;10.680;2023-08-08T00:51:27;99778.84;;;12.91;75.05
80798;BME280;70202;52.238;10.680;2023-08-08T00:52:28;99771.09;;;12.84;75.24
80798;BME280;70202;52.238;10.680;2023-08-08T00:53:29;99796.38;;;13.03;75.31
80798;BME280;70202;52.238;10.680;2023-08-08T00:54:31;99796.38;;;13.03;75.26
80798;BME280;70202;52.238;10.680;2023-08-08T00:55:31;99761.91;;;12.85;75.35
80798;BME280;70202;52.238;10.680;2023-08-08T00:56:32;99787.84;;;12.93;75.42
80798;BME280;70202;52.238;10.680;2023-08-08T00:57:33;99770.72;;;12.90;75.50
80798;BME280;70202;52.238;10.680;2023-08-08T00:58:35;99796.38;;;13.03;75.67
80798;BME280;70202;52.238;10.680;2023-08-08T00:59:35;99795.50;;;13.02;75.64
80798;BME280;70202;52.238;10.680;2023-08-08T01:00:36;99759.00;;;12.88;75.44
80798;BME280;70202;52.238;10.680;2023-08-08T01:01:36;99777.50;;;12.98;75.72
80798;BME280;70202;52.238;10.680;2023-08-08T01:02:37;99798.78;;;13.09;75.96
80798;BME280;70202;52.238;10.680;2023-08-08T01:03:37;99794.19;;;13.10;75.70
80798;BME280;70202;52.238;10.680;2023-08-08T01:04:38;99789.00;;;13.05;75.60
80798;BME280;70202;52.238;10.680;2023-08-08T01:05:46;99802.22;;;13.13;75.87
80798;BME280;70202;52.238;10.680;2023-08-08T01:07:00;99761.75;;;12.88;75.46
80798;BME280;70202;52.238;10.680;2023-08-08T01:08:06;99773.03;;;12.97;75.20
80798;BME280;70202;52.238;10.680;2023-08-08T01:09:21;99775.31;;;13.05;75.83
80798;BME280;70202;52.238;10.680;2023-08-08T01:10:29;99774.63;;;13.01;75.69
80798;BME280;70202;52.238;10.680;2023-08-08T01:11:31;99787.84;;;13.09;75.96
80798;BME280;70202;52.238;10.680;2023-08-08T01:12:44;99672.22;;;12.44;75.71
80798;BME280;70202;52.238;10.680;2023-08-08T01:13:45;99761.47;;;12.92;75.82
80798;BME280;70202;52.238;10.680;2023-08-08T01:14:47;99773.28;;;12.93;75.68
80798;BME280;70202;52.238;10.680;2023-08-08T01:15:48;99794.47;;;13.05;75.66
80798;BME280;70202;52.238;10.680;2023-08-08T01:16:49;99768.88;;;12.90;75.61
80798;BME280;70202;52.238;10.680;2023-08-08T01:17:50;99752.84;;;12.84;75.75
80798;BME280;70202;52.238;10.680;2023-08-08T01:18:51;99758.81;;;12.91;75.88
80798;BME280;70202;52.238;10.680;2023-08-08T01:19:52;99776.72;;;12.96;76.21
80798;BME280;70202;52.238;10.680;2023-08-08T01:20:54;99781.06;;;13.00;76.02
80798;BME280;70202;52.238;10.680;2023-08-08T01:22:00;99620.59;;;12.08;76.11
80798;BME280;70202;52.238;10.680;2023-08-08T01:24:34;99760.75;;;12.89;76.28
80798;BME280;70202;52.238;10.680;2023-08-08T01:25:38;99772.22;;;12.95;76.40
80798;BME280;70202;52.238;10.680;2023-08-08T01:26:40;99765.88;;;12.95;76.09
80798;BME280;70202;52.238;10.680;2023-08-08T01:27:41;99768.59;;;12.95;76.61
80798;BME280;70202;52.238;10.680;2023-08-08T01:28:42;99761.28;;;12.95;76.66
80798;BME280;70202;52.238;10.680;2023-08-08T01:29:43;99764.00;;;12.95;75.85
80798;BME280;70202;52.238;10.680;2023-08-08T01:30:43;99733.34;;;12.74;76.63
80798;BME280;70202;52.238;10.680;2023-08-08T01:31:44;99759.44;;;12.96;76.58
80798;BME280;70202;52.238;10.680;2023-08-08T01:32:44;99763.06;;;12.96;76.48
80798;BME280;70202;52.238;10.680;2023-08-08T01:33:45;99745.50;;;12.85;76.49
80798;BME280;70202;52.238;10.680;2023-08-08T01:34:45;99732.22;;;12.79;76.79
80798;BME280;70202;52.238;10.680;2023-08-08T01:35:58;99756.00;;;12.92;76.88
80798;BME280;70202;52.238;10.680;2023-08-08T01:37:25;99756.72;;;12.96;76.45
80798;BME280;70202;52.238;10.680;2023-08-08T01:38:33;99762.19;;;12.96;76.57
80798;BME280;70202;52.238;10.680;2023-08-08T01:39:34;99736.69;;;12.80;76.81
80798;BME280;70202;52.238;10.680;2023-08-08T01:40:36;99738.34;;;12.82;76.78
80798;BME280;70202;52.238;10.680;2023-08-08T01:41:38;99754.94;;;12.95;76.56
80798;BME280;70202;52.238;10.680;2023-08-08T01:42:40;99744.47;;;12.87;76.82
80798;BME280;70202;52.238;10.680;2023-08-08T01:43:41;99747.88;;;12.91;77.03
80798;BME280;70202;52.238;10.680;2023-08-08T01:44:42;99743.66;;;12.85;77.06
80798;BME280;70202;52.238;10.680;2023-08-08T01:45:43;99753.00;;;12.97;77.05
80798;BME280;70202;52.238;10.680;2023-08-08T01:46:45;99753.00;;;12.97;77.17
80798;BME280;70202;52.238;10.680;2023-08-08T01:47:50;99754.06;;;12.94;77.48
80798;BME280;70202;52.238;10.680;2023-08-08T01:48:50;99758.53;;;12.95;76.96
80798;BME280;70202;52.238;10.680;2023-08-08T01:49:51;99718.59;;;12.77;76.49
80798;BME280;70202;52.238;10.680;2023-08-08T01:50:51;99743.13;;;12.94;76.86
80798;BME280;70202;52.238;10.680;2023-08-08T01:51:52;99743.94;;;12.96;76.71
80798;BME280;70202;52.238;10.680;2023-08-08T01:52:52;99735.44;;;12.85;77.16
80798;BME280;70202;52.238;10.680;2023-08-08T01:53:52;99727.16;;;12.87;76.70
80798;BME280;70202;52.238;10.680;2023-08-08T01:54:53;99753.88;;;12.97;77.06
80798;BME280;70202;52.238;10.680;2023-08-08T01:55:53;99729.81;;;12.88;77.13
80798;BME280;70202;52.238;10.680;2023-08-08T01:56:54;99723.53;;;12.86;77.02
80798;BME280;70202;52.238;10.680;2023-08-08T01:57:54;99711.28;;;12.77;77.30
80798;BME280;70202;52.238;10.680;2023-08-08T01:58:55;99743.84;;;12.98;77.04
80798;BME280;70202;52.238;10.680;2023-08-08T01:59:55;99718.19;;;12.85;77.39
80798;BME280;70202;52.238;10.680;2023-08-08T02:00:55;99728.69;;;12.92;77.41
80798;BME280;70202;52.238;10.680;2023-08-08T02:01:56;99745.41;;;13.02;77.42
80798;BME280;70202;52.238;10.680;2023-08-08T02:02:56;99749.03;;;13.02;77.58
80798;BME280;70202;52.238;10.680;2023-08-08T02:03:56;99717.03;;;12.89;77.36
80798;BME280;70202;52.238;10.680;2023-08-08T02:04:57;99738.09;;;13.02;77.11
80798;BME280;70202;52.238;10.680;2023-08-08T02:05:58;99723.09;;;12.94;77.61
80798;BME280;70202;52.238;10.680;2023-08-08T02:06:58;99722.13;;;12.95;77.38
80798;BME280;70202;52.238;10.680;2023-08-08T02:07:58;99706.19;;;12.87;77.58
80798;BME280;70202;52.238;10.680;2023-08-08T02:08:59;99737.13;;;13.04;77.88
80798;BME280;70202;52.238;10.680;2023-08-08T02:09:59;99708.72;;;12.90;77.67
80798;BME280;70202;52.238;10.680;2023-08-08T02:10:59;99697.28;;;12.84;77.19
80798;BME280;70202;52.238;10.680;2023-08-08T02:12:00;99714.91;;;12.94;77.71
80798;BME280;70202;52.238;10.680;2023-08-08T02:13:00;99704.34;;;12.88;77.56
80798;BME280;70202;52.238;10.680;2023-08-08T02:14:01;99706.97;;;12.89;77.33
80798;BME280;70202;52.238;10.680;2023-08-08T02:15:01;99710.41;;;12.93;77.74
80798;BME280;70202;52.238;10.680;2023-08-08T02:16:01;99696.22;;;12.86;77.28
80798;BME280;70202;52.238;10.680;2023-08-08T02:17:02;99710.16;;;12.97;77.71
80798;BME280;70202;52.238;10.680;2023-08-08T02:18:03;99708.38;;;12.96;77.40
80798;BME280;70202;52.238;10.680;2023-08-08T02:19:04;99693.31;;;12.89;77.48
80798;BME280;70202;52.238;10.680;2023-08-08T02:20:05;99717.28;;;13.00;77.61
80798;BME280;70202;52.238;10.680;2023-08-08T02:21:07;99705.81;;;12.93;77.56
80798;BME280;70202;52.238;10.680;2023-08-08T02:22:08;99719.75;;;13.05;77.44
80798;BME280;70202;52.238;10.680;2023-08-08T02:23:09;99711.03;;;12.98;77.42
80798;BME280;70202;52.238;10.680;2023-08-08T02:24:09;99730.78;;;13.03;77.69
80798;BME280;70202;52.238;10.680;2023-08-08T02:25:10;99684.66;;;12.81;77.65
80798;BME280;70202;52.238;10.680;2023-08-08T02:26:10;99687.22;;;12.84;77.49
80798;BME280;70202;52.238;10.680;2023-08-08T02:27:11;99699.91;;;12.85;77.53
80798;BME280;70202;52.238;10.680;2023-08-08T02:28:12;99684.84;;;12.78;77.31
80798;BME280;70202;52.238;10.680;2023-08-08T02:29:12;99724.53;;;13.01;77.53
80798;BME280;70202;52.238;10.680;2023-08-08T02:30:13;99689.97;;;12.84;77.97
80798;BME280;70202;52.238;10.680;2023-08-08T02:31:13;99715.78;;;12.94;77.69
80798;BME280;70202;52.238;10.680;2023-08-08T02:32:20;99711.41;;;12.92;77.88
80798;BME280;70202;52.238;10.680;2023-08-08T02:33:21;99714.13;;;12.92;77.58
80798;BME280;70202;52.238;10.680;2023-08-08T02:34:21;99720.19;;;12.97;77.89
80798;BME280;70202;52.238;10.680;2023-08-08T02:35:21;99716.94;;;12.90;78.13
80798;BME280;70202;52.238;10.680;2023-08-08T02:36:22;99720.97;;;12.99;77.96
80798;BME280;70202;52.238;10.680;2023-08-08T02:37:22;99713.16;;;12.93;78.07
80798;BME280;70202;52.238;10.680;2023-08-08T02:38:22;99689.09;;;12.84;78.00
80798;BME280;70202;52.238;10.680;2023-08-08T02:39:23;99692.59;;;12.86;77.59
80798;BME280;70202;52.238;10.680;2023-08-08T02:40:23;99702.38;;;12.90;78.03
80798;BME280;70202;52.238;10.680;2023-08-08T02:41:24;99694.34;;;12.87;78.08
80798;BME280;70202;52.238;10.680;2023-08-08T02:42:24;99720.09;;;12.98;77.85
80798;BME280;70202;52.238;10.680;2023-08-08T02:43:25;99718.44;;;12.96;78.15
80798;BME280;70202;52.238;10.680;2023-08-08T02:44:25;99699.91;;;12.85;78.09
80798;BME280;70202;52.238;10.680;2023-08-08T02:45:25;99698.16;;;12.84;78.29
80798;BME280;70202;52.238;10.680;2023-08-08T02:46:26;99698.78;;;12.89;78.22
80798;BME280;70202;52.238;10.680;2023-08-08T02:47:26;99678.75;;;12.73;78.24
80798;BME280;70202;52.238;10.680;2023-08-08T02:48:27;99700.78;;;12.86;78.10
80798;BME280;70202;52.238;10.680;2023-08-08T02:49:27;99724.78;;;12.96;78.03
80798;BME280;70202;52.238;10.680;2023-08-08T02:50:28;99704.34;;;12.88;78.48
80798;BME280;70202;52.238;10.680;2023-08-08T02:51:29;99719.50;;;12.93;78.34
80798;BME280;70202;52.238;10.680;2023-08-08T02:52:29;99726.66;;;12.96;78.02
80798;BME280;70202;52.238;10.680;2023-08-08T02:53:29;99709.97;;;12.85;77.99
80798;BME280;70202;52.238;10.680;2023-08-08T02:54:30;99702.75;;;12.84;78.41
80798;BME280;70202;52.238;10.680;2023-08-08T02:55:30;99679.84;;;12.70;78.25
80798;BME280;70202;52.238;10.680;2023-08-08T02:56:31;99698.22;;;12.83;78.42
80798;BME280;70202;52.238;10.680;2023-08-08T02:57:31;99724.88;;;12.95;78.57
80798;BME280;70202;52.238;10.680;2023-08-08T02:58:31;99702.03;;;12.80;78.34
80798;BME280;70202;52.238;10.680;2023-08-08T02:59:32;99700.91;;;12.84;78.69
80798;BME280;70202;52.238;10.680;2023-08-08T03:00:32;99720.28;;;12.95;78.29
80798;BME280;70202;52.238;10.680;2023-08-08T03:01:33;99717.53;;;12.95;78.76
80798;BME280;70202;52.238;10.680;2023-08-08T03:02:33;99723.00;;;12.95;78.39
80798;BME280;70202;52.238;10.680;2023-08-08T03:03:34;99724.78;;;12.96;78.58
80798;BME280;70202;52.238;10.680;2023-08-08T03:04:34;99722.06;;;12.96;78.93
80798;BME280;70202;52.238;10.680;2023-08-08T03:05:34;99715.78;;;12.94;78.45
80798;BME280;70202;52.238;10.680;2023-08-08T03:06:35;99693.41;;;12.88;78.65
80798;BME280;70202;52.238;10.680;2023-08-08T03:07:35;99700.25;;;12.95;78.85
80798;BME280;70202;52.238;10.680;2023-08-08T03:08:35;99688.72;;;12.90;78.49
80798;BME280;70202;52.238;10.680;2023-08-08T03:09:36;99694.63;;;12.98;78.51
80798;BME280;70202;52.238;10.680;2023-08-08T03:10:37;99710.31;;;13.10;78.80
80798;BME280;70202;52.238;10.680;2023-08-08T03:11:37;99694.88;;;12.93;78.63
80798;BME280;70202;52.238;10.680;2023-08-08T03:12:41;99693.63;;;12.99;78.45
80798;BME280;70202;52.238;10.680;2023-08-08T03:13:41;99706.53;;;13.13;78.80
80798;BME280;70202;52.238;10.680;2023-08-08T03:14:42;99687.22;;;13.00;78.65
80798;BME280;70202;52.238;10.680;2023-08-08T03:15:42;99696.75;;;13.09;78.50
80798;BME280;70202;52.238;10.680;2023-08-08T03:16:43;99692.31;;;13.06;78.44
80798;BME280;70202;52.238;10.680;2023-08-08T03:17:43;99707.91;;;13.20;78.87
80798;BME280;70202;52.238;10.680;2023-08-08T03:18:43;99716.97;;;13.20;78.32
80798;BME280;70202;52.238;10.680;2023-08-08T03:19:44;99692.16;;;13.09;78.52
80798;BME280;70202;52.238;10.680;2023-08-08T03:20:44;99716.91;;;13.22;78.43
80798;BME280;70202;52.238;10.680;2023-08-08T03:21:44;99671.69;;;13.00;78.75
80798;BME280;70202;52.238;10.680;2023-08-08T03:22:45;99715.97;;;13.23;78.43
80798;BME280;70202;52.238;10.680;2023-08-08T03:23:45;99694.50;;;13.15;78.51
80798;BME280;70202;52.238;10.680;2023-08-08T03:24:46;99696.09;;;13.19;78.75
80798;BME280;70202;52.238;10.680;2023-08-08T03:25:46;99696.72;;;13.24;78.43
80798;BME280;70202;52.238;10.680;2023-08-08T03:26:47;99699.19;;;13.29;78.52
80798;BME280;70202;52.238;10.680;2023-08-08T03:27:47;99662.94;;;13.10;78.92
80798;BME280;70202;52.238;10.680;2023-08-08T03:28:48;99682.50;;;13.18;78.73
80798;BME280;70202;52.238;10.680;2023-08-08T03:29:51;99674.31;;;13.18;78.56
80798;BME280;70202;52.238;10.680;2023-08-08T03:30:51;99673.34;;;13.19;78.75
80798;BME280;70202;52.238;10.680;2023-08-08T03:31:51;99682.88;;;13.28;78.56
80798;BME280;70202;52.238;10.680;2023-08-08T03:32:52;99696.25;;;13.32;78.75
80798;BME280;70202;52.238;10.680;2023-08-08T03:33:52;99657.19;;;13.14;78.21
80798;BME280;70202;52.238;10.680;2023-08-08T03:34:53;99698.25;;;13.44;78.76
80798;BME280;70202;52.238;10.680;2023-08-08T03:35:53;99645.97;;;13.19;78.73
80798;BME280;70202;52.238;10.680;2023-08-08T03:36:53;99685.84;;;13.39;78.49
80798;BME280;70202;52.238;10.680;2023-08-08T03:37:54;99687.44;;;13.43;78.05
80798;BME280;70202;52.238;10.680;2023-08-08T03:38:54;99689.53;;;13.38;78.44
80798;BME280;70202;52.238;10.680;2023-08-08T03:39:54;99673.50;;;13.32;78.50
80798;BME280;70202;52.238;10.680;2023-08-08T03:40:55;99688.59;;;13.39;78.31
80798;BME280;70202;52.238;10.680;2023-08-08T03:41:55;99669.28;;;13.26;78.48
80798;BME280;70202;52.238;10.680;2023-08-08T03:42:56;99697.38;;;13.44;78.41
80798;BME280;70202;52.238;10.680;2023-08-08T03:43:56;99684.63;;;13.29;78.31
80798;BME280;70202;52.238;10.680;2023-08-08T03:44:57;99671.16;;;13.25;78.54
80798;BME280;70202;52.238;10.680;2023-08-08T03:45:57;99689.47;;;13.39;78.74
80798;BME280;70202;52.238;10.680;2023-08-08T03:46:57;99680.94;;;13.30;78.37
80798;BME280;70202;52.238;10.680;2023-08-08T03:47:58;99686.72;;;13.39;78.44
80798;BME280;70202;52.238;10.680;2023-08-08T03:48:58;99683.00;;;13.40;78.54
80798;BME280;70202;52.238;10.680;2023-08-08T03:49:59;99696.13;;;13.49;78.81
80798;BME280;70202;52.238;10.680;2023-08-08T03:50:59;99696.94;;;13.52;78.67
80798;BME280;70202;52.238;10.680;2023-08-08T03:51:59;99678.53;;;13.39;78.62
80798;BME280;70202;52.238;10.680;2023-08-08T03:53:00;99670.22;;;13.41;78.77
80798;BME280;70202;52.238;10.680;2023-08-08T03:54:00;99698.41;;;13.57;78.64
80798;BME280;70202;52.238;10.680;2023-08-08T03:55:01;99684.63;;;13.59;78.91
80798;BME280;70202;52.238;10.680;2023-08-08T03:56:01;99671.50;;;13.49;78.87
80798;BME280;70202;52.238;10.680;2023-08-08T03:57:02;99689.91;;;13.62;78.42
80798;BME280;70202;52.238;10.680;2023-08-08T03:58:02;99680.03;;;13.59;78.60
80798;BME280;70202;52.238;10.680;2023-08-08T03:59:03;99659.97;;;13.44;78.92
80798;BME280;70202;52.238;10.680;2023-08-08T04:00:04;99671.22;;;13.54;78.84
80798;BME280;70202;52.238;10.680;2023-08-08T04:01:05;99694.22;;;13.66;78.58
80798;BME280;70202;52.238;10.680;2023-08-08T04:02:05;99676.50;;;13.57;78.67
80798;BME280;70202;52.238;10.680;2023-08-08T04:03:05;99698.81;;;13.65;78.33
80798;BME280;70202;52.238;10.680;2023-08-08T04:04:06;99681.00;;;13.58;78.20
80798;BME280;70202;52.238;10.680;2023-08-08T04:05:07;99674.53;;;13.59;78.44
80798;BME280;70202;52.238;10.680;2023-08-08T04:06:07;99671.16;;;13.56;78.71
80798;BME280;70202;52.238;10.680;2023-08-08T04:07:07;99655.25;;;13.46;78.94
80798;BME280;70202;52.238;10.680;2023-08-08T04:08:08;99662.59;;;13.46;78.83
80798;BME280;70202;52.238;10.680;2023-08-08T04:09:08;99670.25;;;13.55;78.76
80798;BME280;70202;52.238;10.680;2023-08-08T04:10:09;99680.72;;;13.63;78.41
80798;BME280;70202;52.238;10.680;2023-08-08T04:11:09;99689.44;;;13.69;79.14
80798;BME280;70202;52.238;10.680;2023-08-08T04:12:10;99647.97;;;13.47;78.59
80798;BME280;70202;52.238;10.680;2023-08-08T04:13:10;99672.31;;;13.66;78.40
80798;BME280;70202;52.238;10.680;2023-08-08T04:14:11;99665.38;;;13.60;78.90
80798;BME280;70202;52.238;10.680;2023-08-08T04:15:11;99681.81;;;13.74;78.91
80798;BME280;70202;52.238;10.680;2023-08-08T04:16:11;99682.81;;;13.73;78.78
80798;BME280;70202;52.238;10.680;2023-08-08T04:17:12;99667.72;;;13.66;78.95
80798;BME280;70202;52.238;10.680;2023-08-08T04:18:12;99687.19;;;13.76;78.68
80798;BME280;70202;52.238;10.680;2023-08-08T04:19:12;99671.16;;;13.70;78.69
80798;BME280;70202;52.238;10.680;2023-08-08T04:20:13;99673.50;;;13.76;79.06
80798;BME280;70202;52.238;10.680;2023-08-08T04:21:14;99676.94;;;13.80;78.74
80798;BME280;70202;52.238;10.680;2023-08-08T04:22:15;99676.94;;;13.80;79.10
80798;BME280;70202;52.238;10.680;2023-08-08T04:23:15;99666.56;;;13.85;79.02
80798;BME280;70202;52.238;10.680;2023-08-08T04:24:16;99689.88;;;13.92;78.93
80798;BME280;70202;52.238;10.680;2023-08-08T04:25:16;99656.81;;;13.81;79.14
80798;BME280;70202;52.238;10.680;2023-08-08T04:26:17;99675.41;;;13.90;79.01
80798;BME280;70202;52.238;10.680;2023-08-08T04:27:17;99652.22;;;13.81;79.44
80798;BME280;70202;52.238;10.680;2023-08-08T04:28:18;99670.81;;;13.90;78.67
80798;BME280;70202;52.238;10.680;2023-08-08T04:29:19;99685.88;;;13.97;79.12
80798;BME280;70202;52.238;10.680;2023-08-08T04:30:19;99684.91;;;13.98;78.91
80798;BME280;70202;52.238;10.680;2023-08-08T04:31:20;99672.44;;;13.93;79.24
80798;BME280;70202;52.238;10.680;2023-08-08T04:32:20;99653.69;;;13.87;78.86
80798;BME280;70202;52.238;10.680;2023-08-08T04:33:20;99679.13;;;14.03;79.30
80798;BME280;70202;52.238;10.680;2023-08-08T04:34:21;99660.63;;;13.92;79.06
80798;BME280;70202;52.238;10.680;2023-08-08T04:35:21;99686.25;;;14.06;79.00
80798;BME280;70202;52.238;10.680;2023-08-08T04:36:22;99629.03;;;13.72;78.79
80798;BME280;70202;52.238;10.680;2023-08-08T04:37:22;99687.06;;;14.08;78.91
80798;BME280;70202;52.238;10.680;2023-08-08T04:38:22;99658.56;;;13.96;79.17
80798;BME280;70202;52.238;10.680;2023-08-08T04:39:23;99659.75;;;13.92;78.63
80798;BME280;70202;52.238;10.680;2023-08-08T04:40:23;99679.59;;;14.10;78.77
80798;BME280;70202;52.238;10.680;2023-08-08T04:41:24;99666.50;;;14.00;79.08
80798;BME280;70202;52.238;10.680;2023-08-08T04:42:24;99671.50;;;14.08;79.17
80798;BME280;70202;52.238;10.680;2023-08-08T04:43:24;99659.38;;;13.98;78.85
80798;BME280;70202;52.238;10.680;2023-08-08T04:44:25;99676.69;;;14.13;79.02
80798;BME280;70202;52.238;10.680;2023-08-08T04:45:25;99654.84;;;13.97;nan
80798;BME280;70202;52.238;10.680;2023-08-08T04:46:27;99658.09;;;14.04;78.96
80798;BME280;70202;52.238;10.680;2023-08-08T04:47:27;99649.19;;;14.00;78.66
80798;BME280;70202;52.238;10.680;2023-08-08T04:48:28;99658.69;;;14.09;79.25
80798;BME280;70202;52.238;10.680;2023-08-08T04:49:28;99671.78;;;14.18;79.06
80798;BME280;70202;52.238;10.680;2023-08-08T04:50:29;99650.66;;;14.06;79.13
80798;BME280;70202;52.238;10.680;2023-08-08T04:51:29;99649.69;;;14.07;78.73
80798;BME280;70202;52.238;10.680;2023-08-08T04:52:30;99653.31;;;14.07;78.78
80798;BME280;70202;52.238;10.680;2023-08-08T04:53:30;99654.19;;;14.08;79.00
80798;BME280;70202;52.238;10.680;2023-08-08T04:54:30;99658.31;;;14.15;78.85
80798;BME280;70202;52.238;10.680;2023-08-08T04:55:31;99657.31;;;14.16;78.67
80798;BME280;70202;52.238;10.680;2023-08-08T04:56:31;99672.28;;;14.24;78.78
80798;BME280;70202;52.238;10.680;2023-08-08T04:57:31;99651.03;;;14.14;78.74
80798;BME280;70202;52.238;10.680;2023-08-08T04:58:32;99643.03;;;14.11;78.50
80798;BME280;70202;52.238;10.680;2023-08-08T04:59:32;99663.25;;;14.22;78.90
80798;BME280;70202;52.238;10.680;2023-08-08T05:00:32;99674.72;;;14.29;78.33
80798;BME280;70202;52.238;10.680;2023-08-08T05:01:33;99636.47;;;14.13;78.37
80798;BME280;70202;52.238;10.680;2023-08-08T05:02:34;99660.16;;;14.29;78.37
80798;BME280;70202;52.238;10.680;2023-08-08T05:03:36;99657.28;;;14.30;78.57
80798;BME280;70202;52.238;10.680;2023-08-08T05:04:36;99667.06;;;14.34;78.46
80798;BME280;70202;52.238;10.680;2023-08-08T05:05:37;99637.84;;;14.20;78.49
80798;BME280;70202;52.238;10.680;2023-08-08T05:06:37;99637.03;;;14.18;78.51
80798;BME280;70202;52.238;10.680;2023-08-08T05:07:37;99649.38;;;14.25;78.47
80798;BME280;70202;52.238;10.680;2023-08-08T05:08:38;99641.28;;;14.24;78.44
80798;BME280;70202;52.238;10.680;2023-08-08T05:09:38;99664.25;;;14.36;78.31
80798;BME280;70202;52.238;10.680;2023-08-08T05:10:39;99612.69;;;14.14;78.27
80798;BME280;70202;52.238;10.680;2023-08-08T05:11:39;99669.31;;;14.42;78.07
80798;BME280;70202;52.238;10.680;2023-08-08T05:12:39;99646.91;;;14.35;77.99
80798;BME280;70202;52.238;10.680;2023-08-08T05:13:40;99666.41;;;14.45;78.46
80798;BME280;70202;52.238;10.680;2023-08-08T05:14:40;99621.41;;;14.20;77.86
80798;BME280;70202;52.238;10.680;2023-08-08T05:15:41;99659.34;;;14.41;78.47
80798;BME280;70202;52.238;10.680;2023-08-08T05:16:41;99645.66;;;14.41;78.51
80798;BME280;70202;52.238;10.680;2023-08-08T05:17:41;99660.13;;;14.43;78.19
80798;BME280;70202;52.238;10.680;2023-08-08T05:18:42;99659.66;;;14.50;78.17
80798;BME280;70202;52.238;10.680;2023-08-08T05:19:45;99655.84;;;14.53;78.25
80798;BME280;70202;52.238;10.680;2023-08-08T05:20:45;99632.16;;;14.38;78.14